sensor_id;sensor_type;location;lat;lon;timestamp;P1;durP1;ratioP1;P2;durP2;ratioP2
14945;SDS011;7567;50.916;6.900;2022-09-14T00:00:05;7.75;;;7.05;;
14945;SDS011;7567;50.916;6.900;2022-09-14T00:02:32;7.30;;;6.65;;
14945;SDS011;7567;50.916;6.900;2022-09-14T00:04:58;8.75;;;7.82;;
14945;SDS011;7567;50.916;6.900;2022-09-14T00:07:24;9.10;;;8.20;;
14945;SDS011;7567;50.916;6.900;2022-09-14T00:09:50;10.25;;;7.38;;
14945;SDS011;7567;50.916;6.900;2022-09-14T00:12:16;10.27;;;7.93;;
14945;SDS011;7567;50.916;6.900;2022-09-14T00:14:42;10.32;;;9.25;;
14945;SDS011;7567;50.916;6.900;2022-09-14T00:17:09;9.98;;;8.98;;
14945;SDS011;7567;50.916;6.900;2022-09-14T00:19:35;12.20;;;10.93;;
14945;SDS011;7567;50.916;6.900;2022-09-14T00:22:01;11.18;;;10.02;;
14945;SDS011;7567;50.916;6.900;2022-09-14T00:24:28;12.65;;;11.35;;
14945;SDS011;7567;50.916;6.900;2022-09-14T00:26:55;13.20;;;12.00;;
14945;SDS011;7567;50.916;6.900;2022-09-14T00:29:21;13.55;;;12.25;;
14945;SDS011;7567;50.916;6.900;2022-09-14T00:31:48;13.68;;;10.85;;
14945;SDS011;7567;50.916;6.900;2022-09-14T00:34:14;11.52;;;10.43;;
14945;SDS011;7567;50.916;6.900;2022-09-14T00:36:42;11.85;;;10.63;;
14945;SDS011;7567;50.916;6.900;2022-09-14T00:39:11;11.30;;;10.30;;
14945;SDS011;7567;50.916;6.900;2022-09-14T00:41:39;12.63;;;11.27;;
14945;SDS011;7567;50.916;6.900;2022-09-14T00:44:56;11.13;;;10.02;;
14945;SDS011;7567;50.916;6.900;2022-09-14T00:46:54;13.43;;;12.00;;
14945;SDS011;7567;50.916;6.900;2022-09-14T00:49:24;13.73;;;12.32;;
14945;SDS011;7567;50.916;6.900;2022-09-14T00:52:00;14.05;;;12.73;;
14945;SDS011;7567;50.916;6.900;2022-09-14T00:54:34;12.32;;;11.10;;
14945;SDS011;7567;50.916;6.900;2022-09-14T00:57:02;13.63;;;12.32;;
14945;SDS011;7567;50.916;6.900;2022-09-14T00:59:29;15.27;;;13.82;;
14945;SDS011;7567;50.916;6.900;2022-09-14T01:01:58;14.65;;;13.13;;
14945;SDS011;7567;50.916;6.900;2022-09-14T01:04:24;14.50;;;12.90;;
14945;SDS011;7567;50.916;6.900;2022-09-14T01:06:53;17.50;;;15.70;;
14945;SDS011;7567;50.916;6.900;2022-09-14T01:09:39;14.00;;;12.68;;
14945;SDS011;7567;50.916;6.900;2022-09-14T01:12:34;14.35;;;13.05;;
14945;SDS011;7567;50.916;6.900;2022-09-14T01:18:23;17.23;;;15.43;;
14945;SDS011;7567;50.916;6.900;2022-09-14T01:21:27;16.90;;;15.38;;
14945;SDS011;7567;50.916;6.900;2022-09-14T01:29:17;17.35;;;15.65;;
14945;SDS011;7567;50.916;6.900;2022-09-14T01:32:55;18.38;;;16.58;;
14945;SDS011;7567;50.916;6.900;2022-09-14T01:34:55;18.35;;;16.55;;
14945;SDS011;7567;50.916;6.900;2022-09-14T01:40:37;17.13;;;15.52;;
14945;SDS011;7567;50.916;6.900;2022-09-14T01:45:37;19.70;;;17.75;;
14945;SDS011;7567;50.916;6.900;2022-09-14T01:48:07;22.08;;;19.63;;
14945;SDS011;7567;50.916;6.900;2022-09-14T01:50:42;21.02;;;18.98;;
14945;SDS011;7567;50.916;6.900;2022-09-14T01:53:15;24.20;;;21.75;;
14945;SDS011;7567;50.916;6.900;2022-09-14T01:58:46;22.55;;;20.23;;
14945;SDS011;7567;50.916;6.900;2022-09-14T02:01:21;21.88;;;19.63;;
14945;SDS011;7567;50.916;6.900;2022-09-14T02:03:54;20.17;;;18.30;;
14945;SDS011;7567;50.916;6.900;2022-09-14T02:08:53;21.10;;;18.98;;
14945;SDS011;7567;50.916;6.900;2022-09-14T02:11:19;20.08;;;18.17;;
14945;SDS011;7567;50.916;6.900;2022-09-14T02:13:45;22.05;;;19.83;;
14945;SDS011;7567;50.916;6.900;2022-09-14T02:16:11;21.17;;;18.98;;
14945;SDS011;7567;50.916;6.900;2022-09-14T02:18:37;19.98;;;17.90;;
14945;SDS011;7567;50.916;6.900;2022-09-14T02:21:05;20.95;;;18.75;;
14945;SDS011;7567;50.916;6.900;2022-09-14T02:23:35;21.90;;;19.70;;
14945;SDS011;7567;50.916;6.900;2022-09-14T02:26:02;21.25;;;18.90;;
14945;SDS011;7567;50.916;6.900;2022-09-14T02:28:28;20.17;;;18.17;;
14945;SDS011;7567;50.916;6.900;2022-09-14T02:33:29;20.42;;;18.52;;
14945;SDS011;7567;50.916;6.900;2022-09-14T02:36:06;19.73;;;17.70;;
14945;SDS011;7567;50.916;6.900;2022-09-14T02:38:55;20.27;;;18.20;;
14945;SDS011;7567;50.916;6.900;2022-09-14T02:56:31;20.02;;;18.02;;
14945;SDS011;7567;50.916;6.900;2022-09-14T02:58:58;21.42;;;19.33;;
14945;SDS011;7567;50.916;6.900;2022-09-14T03:01:24;21.58;;;19.40;;
14945;SDS011;7567;50.916;6.900;2022-09-14T03:03:50;19.63;;;17.63;;
14945;SDS011;7567;50.916;6.900;2022-09-14T03:06:16;19.95;;;17.95;;
14945;SDS011;7567;50.916;6.900;2022-09-14T03:08:42;20.92;;;18.77;;
14945;SDS011;7567;50.916;6.900;2022-09-14T03:11:08;21.10;;;18.98;;
14945;SDS011;7567;50.916;6.900;2022-09-14T03:13:34;20.25;;;18.20;;
14945;SDS011;7567;50.916;6.900;2022-09-14T03:16:04;20.38;;;18.35;;
14945;SDS011;7567;50.916;6.900;2022-09-14T03:18:35;22.17;;;19.98;;
14945;SDS011;7567;50.916;6.900;2022-09-14T03:21:08;21.48;;;19.30;;
14945;SDS011;7567;50.916;6.900;2022-09-14T03:23:40;20.30;;;18.25;;
14945;SDS011;7567;50.916;6.900;2022-09-14T03:26:08;20.92;;;18.83;;
14945;SDS011;7567;50.916;6.900;2022-09-14T03:28:36;21.42;;;19.40;;
14945;SDS011;7567;50.916;6.900;2022-09-14T03:31:02;20.38;;;18.27;;
14945;SDS011;7567;50.916;6.900;2022-09-14T03:33:30;21.08;;;18.98;;
14945;SDS011;7567;50.916;6.900;2022-09-14T03:35:56;20.98;;;18.85;;
14945;SDS011;7567;50.916;6.900;2022-09-14T03:38:22;22.77;;;19.98;;
14945;SDS011;7567;50.916;6.900;2022-09-14T03:40:51;21.40;;;19.23;;
14945;SDS011;7567;50.916;6.900;2022-09-14T03:43:17;20.25;;;18.17;;
14945;SDS011;7567;50.916;6.900;2022-09-14T03:45:43;21.23;;;19.23;;
14945;SDS011;7567;50.916;6.900;2022-09-14T03:48:09;20.85;;;18.73;;
14945;SDS011;7567;50.916;6.900;2022-09-14T03:50:36;22.02;;;19.73;;
14945;SDS011;7567;50.916;6.900;2022-09-14T03:53:02;23.17;;;20.80;;
14945;SDS011;7567;50.916;6.900;2022-09-14T03:55:29;22.60;;;20.27;;
14945;SDS011;7567;50.916;6.900;2022-09-14T03:57:55;23.33;;;20.58;;
14945;SDS011;7567;50.916;6.900;2022-09-14T04:00:21;21.80;;;19.45;;
14945;SDS011;7567;50.916;6.900;2022-09-14T04:02:47;23.65;;;21.40;;
14945;SDS011;7567;50.916;6.900;2022-09-14T04:05:13;22.60;;;20.48;;
14945;SDS011;7567;50.916;6.900;2022-09-14T04:07:39;22.73;;;20.30;;
14945;SDS011;7567;50.916;6.900;2022-09-14T04:10:05;23.08;;;20.70;;
14945;SDS011;7567;50.916;6.900;2022-09-14T04:12:35;23.42;;;21.02;;
14945;SDS011;7567;50.916;6.900;2022-09-14T04:15:03;22.13;;;19.88;;
14945;SDS011;7567;50.916;6.900;2022-09-14T04:17:33;22.58;;;20.23;;
14945;SDS011;7567;50.916;6.900;2022-09-14T04:19:59;23.67;;;21.27;;
14945;SDS011;7567;50.916;6.900;2022-09-14T04:22:25;21.50;;;19.40;;
14945;SDS011;7567;50.916;6.900;2022-09-14T04:24:52;22.20;;;20.00;;
14945;SDS011;7567;50.916;6.900;2022-09-14T04:27:19;23.20;;;20.67;;
14945;SDS011;7567;50.916;6.900;2022-09-14T04:29:47;23.60;;;21.10;;
14945;SDS011;7567;50.916;6.900;2022-09-14T04:32:14;24.35;;;20.60;;
14945;SDS011;7567;50.916;6.900;2022-09-14T04:34:41;23.55;;;21.35;;
14945;SDS011;7567;50.916;6.900;2022-09-14T04:37:07;24.15;;;21.73;;
14945;SDS011;7567;50.916;6.900;2022-09-14T04:39:33;24.38;;;21.88;;
14945;SDS011;7567;50.916;6.900;2022-09-14T04:41:59;23.80;;;21.42;;
14945;SDS011;7567;50.916;6.900;2022-09-14T04:44:25;23.77;;;21.17;;
14945;SDS011;7567;50.916;6.900;2022-09-14T04:46:50;24.63;;;22.02;;
14945;SDS011;7567;50.916;6.900;2022-09-14T04:49:17;23.75;;;21.35;;
14945;SDS011;7567;50.916;6.900;2022-09-14T04:51:43;25.20;;;22.65;;
14945;SDS011;7567;50.916;6.900;2022-09-14T04:54:11;25.17;;;22.67;;
14945;SDS011;7567;50.916;6.900;2022-09-14T04:56:39;23.60;;;21.13;;
14945;SDS011;7567;50.916;6.900;2022-09-14T04:59:05;25.85;;;23.30;;
14945;SDS011;7567;50.916;6.900;2022-09-14T05:01:33;24.63;;;22.13;;
14945;SDS011;7567;50.916;6.900;2022-09-14T05:04:04;26.67;;;23.50;;
14945;SDS011;7567;50.916;6.900;2022-09-14T05:06:32;25.85;;;23.15;;
14945;SDS011;7567;50.916;6.900;2022-09-14T05:09:01;23.88;;;21.45;;
14945;SDS011;7567;50.916;6.900;2022-09-14T05:11:30;25.42;;;22.83;;
14945;SDS011;7567;50.916;6.900;2022-09-14T05:13:58;23.90;;;21.38;;
14945;SDS011;7567;50.916;6.900;2022-09-14T05:16:29;17.00;;;15.40;;
14945;SDS011;7567;50.916;6.900;2022-09-14T05:18:58;13.10;;;11.90;;
14945;SDS011;7567;50.916;6.900;2022-09-14T05:21:26;10.65;;;9.65;;
14945;SDS011;7567;50.916;6.900;2022-09-14T05:23:54;11.82;;;10.63;;
14945;SDS011;7567;50.916;6.900;2022-09-14T05:26:22;10.85;;;9.93;;
14945;SDS011;7567;50.916;6.900;2022-09-14T05:28:53;10.27;;;9.38;;
14945;SDS011;7567;50.916;6.900;2022-09-14T05:31:20;9.93;;;9.02;;
14945;SDS011;7567;50.916;6.900;2022-09-14T05:33:50;10.80;;;9.80;;
14945;SDS011;7567;50.916;6.900;2022-09-14T05:36:16;10.70;;;9.70;;
14945;SDS011;7567;50.916;6.900;2022-09-14T05:38:43;11.95;;;10.90;;
14945;SDS011;7567;50.916;6.900;2022-09-14T05:41:10;11.98;;;10.82;;
14945;SDS011;7567;50.916;6.900;2022-09-14T05:43:37;14.02;;;12.82;;
14945;SDS011;7567;50.916;6.900;2022-09-14T05:46:06;14.15;;;12.75;;
14945;SDS011;7567;50.916;6.900;2022-09-14T05:48:35;14.98;;;13.52;;
14945;SDS011;7567;50.916;6.900;2022-09-14T05:51:03;14.52;;;13.07;;
14945;SDS011;7567;50.916;6.900;2022-09-14T05:53:39;14.07;;;12.82;;
14945;SDS011;7567;50.916;6.900;2022-09-14T05:56:07;14.80;;;13.32;;
14945;SDS011;7567;50.916;6.900;2022-09-14T05:58:35;13.18;;;12.00;;
14945;SDS011;7567;50.916;6.900;2022-09-14T06:01:09;12.32;;;11.23;;
14945;SDS011;7567;50.916;6.900;2022-09-14T06:03:38;11.68;;;10.60;;
14945;SDS011;7567;50.916;6.900;2022-09-14T06:06:05;12.05;;;11.00;;
14945;SDS011;7567;50.916;6.900;2022-09-14T06:08:32;11.50;;;10.38;;
14945;SDS011;7567;50.916;6.900;2022-09-14T06:11:06;10.15;;;9.25;;
14945;SDS011;7567;50.916;6.900;2022-09-14T06:13:33;10.57;;;9.68;;
14945;SDS011;7567;50.916;6.900;2022-09-14T06:16:00;7.57;;;6.80;;
14945;SDS011;7567;50.916;6.900;2022-09-14T06:18:31;7.95;;;7.22;;
14945;SDS011;7567;50.916;6.900;2022-09-14T06:20:58;6.95;;;6.45;;
14945;SDS011;7567;50.916;6.900;2022-09-14T06:23:25;6.93;;;6.32;;
14945;SDS011;7567;50.916;6.900;2022-09-14T06:25:53;7.00;;;6.40;;
14945;SDS011;7567;50.916;6.900;2022-09-14T06:28:20;6.20;;;5.70;;
14945;SDS011;7567;50.916;6.900;2022-09-14T06:30:47;6.07;;;5.57;;
14945;SDS011;7567;50.916;6.900;2022-09-14T06:33:13;6.03;;;5.53;;
14945;SDS011;7567;50.916;6.900;2022-09-14T06:35:43;5.97;;;5.43;;
14945;SDS011;7567;50.916;6.900;2022-09-14T06:38:18;5.53;;;4.53;;
14945;SDS011;7567;50.916;6.900;2022-09-14T06:40:51;5.35;;;4.95;;
14945;SDS011;7567;50.916;6.900;2022-09-14T06:43:21;5.80;;;5.32;;
14945;SDS011;7567;50.916;6.900;2022-09-14T06:46:02;6.68;;;5.28;;
14945;SDS011;7567;50.916;6.900;2022-09-14T06:49:07;5.28;;;4.88;;
14945;SDS011;7567;50.916;6.900;2022-09-14T06:51:39;5.82;;;5.13;;
14945;SDS011;7567;50.916;6.900;2022-09-14T06:54:07;5.22;;;4.82;;
14945;SDS011;7567;50.916;6.900;2022-09-14T06:56:35;5.97;;;5.47;;
14945;SDS011;7567;50.916;6.900;2022-09-14T06:59:04;5.53;;;5.03;;
14945;SDS011;7567;50.916;6.900;2022-09-14T07:01:32;5.43;;;5.03;;
14945;SDS011;7567;50.916;6.900;2022-09-14T07:03:58;4.68;;;4.07;;
14945;SDS011;7567;50.916;6.900;2022-09-14T07:06:26;5.15;;;4.65;;
14945;SDS011;7567;50.916;6.900;2022-09-14T07:08:54;5.05;;;4.65;;
14945;SDS011;7567;50.916;6.900;2022-09-14T07:11:22;5.30;;;4.78;;
14945;SDS011;7567;50.916;6.900;2022-09-14T07:13:53;5.13;;;4.72;;
14945;SDS011;7567;50.916;6.900;2022-09-14T07:16:23;5.15;;;4.72;;
14945;SDS011;7567;50.916;6.900;2022-09-14T07:18:56;5.10;;;4.53;;
14945;SDS011;7567;50.916;6.900;2022-09-14T07:21:26;4.63;;;4.22;;
14945;SDS011;7567;50.916;6.900;2022-09-14T07:23:52;5.28;;;4.90;;
14945;SDS011;7567;50.916;6.900;2022-09-14T07:26:21;4.38;;;4.00;;
14945;SDS011;7567;50.916;6.900;2022-09-14T07:28:56;4.13;;;3.83;;
14945;SDS011;7567;50.916;6.900;2022-09-14T07:31:27;4.55;;;3.97;;
14945;SDS011;7567;50.916;6.900;2022-09-14T07:34:17;3.92;;;3.40;;
14945;SDS011;7567;50.916;6.900;2022-09-14T07:36:43;4.00;;;3.70;;
14945;SDS011;7567;50.916;6.900;2022-09-14T07:39:10;5.60;;;3.88;;
14945;SDS011;7567;50.916;6.900;2022-09-14T07:41:38;4.32;;;3.75;;
14945;SDS011;7567;50.916;6.900;2022-09-14T07:44:08;4.10;;;3.75;;
14945;SDS011;7567;50.916;6.900;2022-09-14T07:46:37;3.75;;;3.45;;
14945;SDS011;7567;50.916;6.900;2022-09-14T07:49:07;4.25;;;3.85;;
14945;SDS011;7567;50.916;6.900;2022-09-14T07:51:34;4.10;;;3.80;;
14945;SDS011;7567;50.916;6.900;2022-09-14T07:54:04;4.18;;;3.88;;
14945;SDS011;7567;50.916;6.900;2022-09-14T07:56:31;4.28;;;3.88;;
14945;SDS011;7567;50.916;6.900;2022-09-14T07:58:59;4.20;;;3.90;;
14945;SDS011;7567;50.916;6.900;2022-09-14T08:08:34;5.40;;;4.95;;
14945;SDS011;7567;50.916;6.900;2022-09-14T08:11:02;5.15;;;4.65;;
14945;SDS011;7567;50.916;6.900;2022-09-14T08:13:31;4.97;;;4.53;;
14945;SDS011;7567;50.916;6.900;2022-09-14T08:15:59;5.07;;;4.57;;
14945;SDS011;7567;50.916;6.900;2022-09-14T08:18:27;4.90;;;4.47;;
14945;SDS011;7567;50.916;6.900;2022-09-14T08:20:54;4.15;;;3.83;;
14945;SDS011;7567;50.916;6.900;2022-09-14T08:23:53;4.53;;;4.13;;
14945;SDS011;7567;50.916;6.900;2022-09-14T08:26:25;4.80;;;4.40;;
14945;SDS011;7567;50.916;6.900;2022-09-14T08:36:14;4.38;;;4.03;;
14945;SDS011;7567;50.916;6.900;2022-09-14T08:38:44;4.47;;;4.07;;
14945;SDS011;7567;50.916;6.900;2022-09-14T08:44:16;4.82;;;4.43;;
14945;SDS011;7567;50.916;6.900;2022-09-14T08:52:38;4.88;;;4.47;;
14945;SDS011;7567;50.916;6.900;2022-09-14T08:57:41;5.35;;;4.85;;
14945;SDS011;7567;50.916;6.900;2022-09-14T09:00:13;5.22;;;4.35;;
14945;SDS011;7567;50.916;6.900;2022-09-14T09:05:37;5.78;;;5.28;;
14945;SDS011;7567;50.916;6.900;2022-09-14T09:10:45;6.10;;;5.63;;
14945;SDS011;7567;50.916;6.900;2022-09-14T09:13:14;6.35;;;5.75;;
14945;SDS011;7567;50.916;6.900;2022-09-14T09:15:45;6.53;;;6.03;;
14945;SDS011;7567;50.916;6.900;2022-09-14T09:20:53;9.98;;;8.63;;
14945;SDS011;7567;50.916;6.900;2022-09-14T09:23:25;8.30;;;7.70;;
14945;SDS011;7567;50.916;6.900;2022-09-14T09:28:26;10.07;;;9.18;;
14945;SDS011;7567;50.916;6.900;2022-09-14T09:30:54;9.75;;;8.95;;
14945;SDS011;7567;50.916;6.900;2022-09-14T09:33:25;10.35;;;9.45;;
14945;SDS011;7567;50.916;6.900;2022-09-14T09:35:53;12.10;;;11.00;;
14945;SDS011;7567;50.916;6.900;2022-09-14T09:38:21;11.13;;;10.32;;
14945;SDS011;7567;50.916;6.900;2022-09-14T09:43:58;11.98;;;10.88;;
14945;SDS011;7567;50.916;6.900;2022-09-14T09:46:25;11.70;;;10.80;;
14945;SDS011;7567;50.916;6.900;2022-09-14T09:48:54;12.25;;;11.25;;
14945;SDS011;7567;50.916;6.900;2022-09-14T09:51:26;11.40;;;10.52;;
14945;SDS011;7567;50.916;6.900;2022-09-14T09:54:01;12.68;;;11.50;;
14945;SDS011;7567;50.916;6.900;2022-09-14T09:59:30;13.90;;;12.73;;
14945;SDS011;7567;50.916;6.900;2022-09-14T10:02:42;12.80;;;11.77;;
14945;SDS011;7567;50.916;6.900;2022-09-14T10:05:04;13.05;;;11.73;;
14945;SDS011;7567;50.916;6.900;2022-09-14T10:07:35;12.27;;;10.95;;
14945;SDS011;7567;50.916;6.900;2022-09-14T10:10:15;13.65;;;12.43;;
14945;SDS011;7567;50.916;6.900;2022-09-14T10:12:45;12.18;;;11.07;;
14945;SDS011;7567;50.916;6.900;2022-09-14T10:15:24;12.23;;;10.88;;
14945;SDS011;7567;50.916;6.900;2022-09-14T10:20:42;12.93;;;11.82;;
14945;SDS011;7567;50.916;6.900;2022-09-14T10:23:42;11.10;;;10.05;;
14945;SDS011;7567;50.916;6.900;2022-09-14T10:28:40;10.00;;;9.20;;
14945;SDS011;7567;50.916;6.900;2022-09-14T10:33:49;11.60;;;10.60;;
14945;SDS011;7567;50.916;6.900;2022-09-14T10:36:27;11.65;;;10.75;;
14945;SDS011;7567;50.916;6.900;2022-09-14T11:01:28;6.97;;;6.35;;
14945;SDS011;7567;50.916;6.900;2022-09-14T11:04:08;7.22;;;5.88;;
14945;SDS011;7567;50.916;6.900;2022-09-14T11:07:05;5.60;;;5.10;;
14945;SDS011;7567;50.916;6.900;2022-09-14T11:09:50;5.03;;;4.53;;
14945;SDS011;7567;50.916;6.900;2022-09-14T11:18:22;4.88;;;4.10;;
14945;SDS011;7567;50.916;6.900;2022-09-14T11:21:16;3.85;;;3.60;;
14945;SDS011;7567;50.916;6.900;2022-09-14T11:24:01;4.68;;;4.28;;
14945;SDS011;7567;50.916;6.900;2022-09-14T11:26:42;4.20;;;3.80;;
14945;SDS011;7567;50.916;6.900;2022-09-14T11:31:57;4.80;;;4.40;;
14945;SDS011;7567;50.916;6.900;2022-09-14T11:37:11;6.63;;;5.28;;
14945;SDS011;7567;50.916;6.900;2022-09-14T11:40:04;6.13;;;5.63;;
14945;SDS011;7567;50.916;6.900;2022-09-14T11:43:23;5.65;;;5.05;;
14945;SDS011;7567;50.916;6.900;2022-09-14T11:46:11;7.88;;;7.13;;
14945;SDS011;7567;50.916;6.900;2022-09-14T11:51:56;6.53;;;5.90;;
14945;SDS011;7567;50.916;6.900;2022-09-14T11:54:30;6.93;;;6.32;;
14945;SDS011;7567;50.916;6.900;2022-09-14T11:56:58;7.47;;;6.78;;
14945;SDS011;7567;50.916;6.900;2022-09-14T12:17:43;8.85;;;8.15;;
14945;SDS011;7567;50.916;6.900;2022-09-14T12:25:36;7.55;;;6.82;;
14945;SDS011;7567;50.916;6.900;2022-09-14T12:28:23;8.18;;;7.38;;
14945;SDS011;7567;50.916;6.900;2022-09-14T12:35:59;9.55;;;8.75;;
14945;SDS011;7567;50.916;6.900;2022-09-14T12:40:57;17.02;;;15.68;;
14945;SDS011;7567;50.916;6.900;2022-09-14T12:51:31;7.60;;;7.00;;
14945;SDS011;7567;50.916;6.900;2022-09-14T13:05:13;5.60;;;5.10;;
14945;SDS011;7567;50.916;6.900;2022-09-14T13:07:48;6.22;;;5.45;;
14945;SDS011;7567;50.916;6.900;2022-09-14T13:10:31;5.70;;;5.18;;
14945;SDS011;7567;50.916;6.900;2022-09-14T13:13:01;5.40;;;5.00;;
14945;SDS011;7567;50.916;6.900;2022-09-14T13:15:31;5.82;;;4.45;;
14945;SDS011;7567;50.916;6.900;2022-09-14T13:20:27;5.68;;;5.18;;
14945;SDS011;7567;50.916;6.900;2022-09-14T13:22:54;5.45;;;5.05;;
14945;SDS011;7567;50.916;6.900;2022-09-14T13:25:28;6.20;;;5.60;;
14945;SDS011;7567;50.916;6.900;2022-09-14T13:28:03;10.55;;;5.53;;
14945;SDS011;7567;50.916;6.900;2022-09-14T13:30:31;5.03;;;4.63;;
14945;SDS011;7567;50.916;6.900;2022-09-14T13:32:58;5.30;;;4.60;;
14945;SDS011;7567;50.916;6.900;2022-09-14T13:35:29;5.38;;;4.88;;
14945;SDS011;7567;50.916;6.900;2022-09-14T13:38:09;8.80;;;5.90;;
14945;SDS011;7567;50.916;6.900;2022-09-14T13:40:41;5.57;;;5.07;;
14945;SDS011;7567;50.916;6.900;2022-09-14T13:43:07;6.13;;;5.63;;
14945;SDS011;7567;50.916;6.900;2022-09-14T13:45:34;5.35;;;4.95;;
14945;SDS011;7567;50.916;6.900;2022-09-14T13:48:01;4.75;;;4.40;;
14945;SDS011;7567;50.916;6.900;2022-09-14T13:50:29;6.00;;;5.40;;
14945;SDS011;7567;50.916;6.900;2022-09-14T13:52:55;5.45;;;5.05;;
14945;SDS011;7567;50.916;6.900;2022-09-14T13:55:22;5.38;;;4.85;;
14945;SDS011;7567;50.916;6.900;2022-09-14T13:58:04;5.03;;;4.55;;
14945;SDS011;7567;50.916;6.900;2022-09-14T14:00:46;6.53;;;5.28;;
14945;SDS011;7567;50.916;6.900;2022-09-14T14:03:32;5.43;;;4.78;;
14945;SDS011;7567;50.916;6.900;2022-09-14T14:06:23;4.88;;;3.97;;
14945;SDS011;7567;50.916;6.900;2022-09-14T14:11:30;4.53;;;3.78;;
14945;SDS011;7567;50.916;6.900;2022-09-14T14:16:40;4.97;;;3.72;;
14945;SDS011;7567;50.916;6.900;2022-09-14T14:19:27;4.65;;;4.13;;
14945;SDS011;7567;50.916;6.900;2022-09-14T14:24:42;5.13;;;4.22;;
14945;SDS011;7567;50.916;6.900;2022-09-14T14:30:11;3.53;;;3.22;;
14945;SDS011;7567;50.916;6.900;2022-09-14T14:32:40;4.05;;;2.92;;
14945;SDS011;7567;50.916;6.900;2022-09-14T14:35:16;3.25;;;2.67;;
14945;SDS011;7567;50.916;6.900;2022-09-14T14:37:46;5.25;;;2.53;;
14945;SDS011;7567;50.916;6.900;2022-09-14T14:40:14;4.07;;;2.50;;
14945;SDS011;7567;50.916;6.900;2022-09-14T14:42:41;3.45;;;2.38;;
14945;SDS011;7567;50.916;6.900;2022-09-14T14:45:18;2.38;;;2.17;;
14945;SDS011;7567;50.916;6.900;2022-09-14T14:47:47;2.53;;;2.10;;
14945;SDS011;7567;50.916;6.900;2022-09-14T14:50:24;2.47;;;2.22;;
14945;SDS011;7567;50.916;6.900;2022-09-14T14:52:55;1.70;;;1.60;;
14945;SDS011;7567;50.916;6.900;2022-09-14T14:55:22;2.05;;;1.80;;
14945;SDS011;7567;50.916;6.900;2022-09-14T14:57:50;2.28;;;1.95;;
14945;SDS011;7567;50.916;6.900;2022-09-14T15:00:20;1.83;;;1.70;;
14945;SDS011;7567;50.916;6.900;2022-09-14T15:02:47;3.83;;;1.60;;
14945;SDS011;7567;50.916;6.900;2022-09-14T15:05:14;1.90;;;1.80;;
14945;SDS011;7567;50.916;6.900;2022-09-14T15:07:40;2.78;;;2.13;;
14945;SDS011;7567;50.916;6.900;2022-09-14T15:10:14;3.15;;;2.47;;
14945;SDS011;7567;50.916;6.900;2022-09-14T15:12:41;2.85;;;2.50;;
14945;SDS011;7567;50.916;6.900;2022-09-14T15:15:14;3.63;;;2.13;;
14945;SDS011;7567;50.916;6.900;2022-09-14T15:17:50;4.13;;;2.67;;
14945;SDS011;7567;50.916;6.900;2022-09-14T15:20:17;3.53;;;2.63;;
14945;SDS011;7567;50.916;6.900;2022-09-14T15:22:45;3.63;;;3.17;;
14945;SDS011;7567;50.916;6.900;2022-09-14T15:25:12;4.35;;;2.70;;
14945;SDS011;7567;50.916;6.900;2022-09-14T15:27:39;2.83;;;2.63;;
14945;SDS011;7567;50.916;6.900;2022-09-14T15:30:06;2.90;;;2.67;;
14945;SDS011;7567;50.916;6.900;2022-09-14T15:32:33;3.28;;;2.97;;
14945;SDS011;7567;50.916;6.900;2022-09-14T15:35:06;3.22;;;2.92;;
14945;SDS011;7567;50.916;6.900;2022-09-14T15:37:53;2.90;;;2.70;;
14945;SDS011;7567;50.916;6.900;2022-09-14T15:40:19;3.10;;;2.80;;
14945;SDS011;7567;50.916;6.900;2022-09-14T15:42:45;3.17;;;2.97;;
14945;SDS011;7567;50.916;6.900;2022-09-14T15:45:11;4.50;;;4.10;;
14945;SDS011;7567;50.916;6.900;2022-09-14T15:47:40;4.70;;;4.07;;
14945;SDS011;7567;50.916;6.900;2022-09-14T15:50:06;5.03;;;4.53;;
14945;SDS011;7567;50.916;6.900;2022-09-14T15:52:33;4.38;;;3.97;;
14945;SDS011;7567;50.916;6.900;2022-09-14T15:55:00;4.85;;;4.45;;
14945;SDS011;7567;50.916;6.900;2022-09-14T15:57:26;5.93;;;4.85;;
14945;SDS011;7567;50.916;6.900;2022-09-14T15:59:52;4.78;;;4.38;;
14945;SDS011;7567;50.916;6.900;2022-09-14T16:02:27;4.97;;;4.60;;
14945;SDS011;7567;50.916;6.900;2022-09-14T16:04:53;5.82;;;5.25;;
14945;SDS011;7567;50.916;6.900;2022-09-14T16:07:19;4.85;;;4.35;;
14945;SDS011;7567;50.916;6.900;2022-09-14T16:09:45;5.40;;;5.00;;
14945;SDS011;7567;50.916;6.900;2022-09-14T16:12:11;5.80;;;5.30;;
14945;SDS011;7567;50.916;6.900;2022-09-14T16:14:38;6.13;;;5.63;;
14945;SDS011;7567;50.916;6.900;2022-09-14T16:17:04;6.30;;;5.80;;
14945;SDS011;7567;50.916;6.900;2022-09-14T16:19:30;7.00;;;6.40;;
14945;SDS011;7567;50.916;6.900;2022-09-14T16:21:57;6.78;;;6.28;;
14945;SDS011;7567;50.916;6.900;2022-09-14T16:24:23;7.05;;;6.45;;
14945;SDS011;7567;50.916;6.900;2022-09-14T16:26:50;7.70;;;7.00;;
14945;SDS011;7567;50.916;6.900;2022-09-14T16:29:17;6.47;;;5.97;;
14945;SDS011;7567;50.916;6.900;2022-09-14T16:31:44;7.20;;;6.65;;
14945;SDS011;7567;50.916;6.900;2022-09-14T16:34:12;8.27;;;7.47;;
14945;SDS011;7567;50.916;6.900;2022-09-14T16:36:41;8.25;;;7.55;;
14945;SDS011;7567;50.916;6.900;2022-09-14T16:39:12;7.57;;;6.97;;
14945;SDS011;7567;50.916;6.900;2022-09-14T16:41:39;8.90;;;8.00;;
14945;SDS011;7567;50.916;6.900;2022-09-14T16:44:06;10.73;;;8.15;;
14945;SDS011;7567;50.916;6.900;2022-09-14T16:46:36;8.57;;;7.68;;
14945;SDS011;7567;50.916;6.900;2022-09-14T16:49:02;10.45;;;9.55;;
14945;SDS011;7567;50.916;6.900;2022-09-14T16:51:32;10.65;;;9.73;;
14945;SDS011;7567;50.916;6.900;2022-09-14T16:53:59;9.63;;;8.45;;
14945;SDS011;7567;50.916;6.900;2022-09-14T16:56:30;11.00;;;9.98;;
14945;SDS011;7567;50.916;6.900;2022-09-14T16:58:58;11.18;;;10.30;;
14945;SDS011;7567;50.916;6.900;2022-09-14T17:01:26;10.43;;;9.63;;
14945;SDS011;7567;50.916;6.900;2022-09-14T17:03:56;12.45;;;9.98;;
14945;SDS011;7567;50.916;6.900;2022-09-14T17:06:27;11.82;;;10.73;;
14945;SDS011;7567;50.916;6.900;2022-09-14T17:08:56;12.52;;;11.27;;
14945;SDS011;7567;50.916;6.900;2022-09-14T17:11:27;13.18;;;11.88;;
14945;SDS011;7567;50.916;6.900;2022-09-14T17:13:54;11.75;;;10.75;;
14945;SDS011;7567;50.916;6.900;2022-09-14T17:16:21;12.43;;;11.43;;
14945;SDS011;7567;50.916;6.900;2022-09-14T17:18:48;13.38;;;12.18;;
14945;SDS011;7567;50.916;6.900;2022-09-14T17:21:37;15.05;;;12.70;;
14945;SDS011;7567;50.916;6.900;2022-09-14T17:24:03;13.93;;;12.73;;
14945;SDS011;7567;50.916;6.900;2022-09-14T17:26:30;13.45;;;12.45;;
14945;SDS011;7567;50.916;6.900;2022-09-14T17:28:57;13.32;;;12.13;;
14945;SDS011;7567;50.916;6.900;2022-09-14T17:31:25;14.00;;;12.75;;
14945;SDS011;7567;50.916;6.900;2022-09-14T17:33:53;12.57;;;11.55;;
14945;SDS011;7567;50.916;6.900;2022-09-14T17:36:20;12.32;;;11.23;;
14945;SDS011;7567;50.916;6.900;2022-09-14T17:38:46;12.55;;;11.45;;
14945;SDS011;7567;50.916;6.900;2022-09-14T17:41:20;12.77;;;11.13;;
14945;SDS011;7567;50.916;6.900;2022-09-14T17:43:51;11.95;;;10.75;;
14945;SDS011;7567;50.916;6.900;2022-09-14T17:46:19;11.45;;;10.45;;
14945;SDS011;7567;50.916;6.900;2022-09-14T17:48:49;11.93;;;10.63;;
14945;SDS011;7567;50.916;6.900;2022-09-14T17:51:17;11.50;;;10.50;;
14945;SDS011;7567;50.916;6.900;2022-09-14T17:53:45;10.98;;;9.85;;
14945;SDS011;7567;50.916;6.900;2022-09-14T17:56:13;10.93;;;9.93;;
14945;SDS011;7567;50.916;6.900;2022-09-14T17:58:41;9.43;;;8.65;;
14945;SDS011;7567;50.916;6.900;2022-09-14T18:01:11;11.05;;;10.02;;
14945;SDS011;7567;50.916;6.900;2022-09-14T18:03:42;9.55;;;8.75;;
14945;SDS011;7567;50.916;6.900;2022-09-14T18:06:13;9.23;;;8.43;;
14945;SDS011;7567;50.916;6.900;2022-09-14T18:08:39;10.00;;;9.15;;
14945;SDS011;7567;50.916;6.900;2022-09-14T18:11:07;11.63;;;10.30;;
14945;SDS011;7567;50.916;6.900;2022-09-14T18:13:37;10.07;;;9.27;;
14945;SDS011;7567;50.916;6.900;2022-09-14T18:16:08;9.95;;;9.05;;